YSSY/SYD METAR and TAF weather

Enter ICAO airport designator
Station Type Date Time Source
YSSY METAR 2021/09/24 02:00 UTC NOAA

YSSY 240200Z 29013KT CAVOK 27/06 Q1011


Station Type Date Time Source
YSSY Decoded METAR 2021/09/24 02:00 UTC NOAA

Sydney Airport, Australia (YSSY) 33-57S 151-11E 3M
Sep 23, 2021 - 10:00 PM EDT / 2021.09.24 0200 UTC
Wind: from the WNW (290 degrees) at 15 MPH (13 KT):0
Visibility: greater than 7 mile(s):0
Temperature: 80 F (27 C)
Dew Point: 42 F (6 C)
Relative Humidity: 26%
Pressure (altimeter): 29.85 in. Hg (1011 hPa)
ob: YSSY 240200Z 29013KT CAVOK 27/06 Q1011
cycle: 2

Station Type Date Time Source
YSSY TAF 2021/09/24 03:15 UTC NOAA

TAF
AMD YSSY 240209Z 2403/2506 30015G25KT CAVOK
FM240700 31012KT CAVOK
FM241800 28008KT CAVOK
FM242100 24014KT CAVOK
BECMG 2500/2501 18018G28KT 9999 BKN025

Example: see airport list